Time;durP1;ratioP1;P1;durP2;ratioP2;P2;SDS_P1;SDS_P2;PMS_P1;PMS_P2;Temp;Humidity;BMP_temperature;BMP_pressure;BME280_temperature;BME280_humidity;BME280_pressure;Samples;Min_cycle;Max_cycle;Signal;HPM_P1;HPM_P2
2022/10/11 00:00:29;;;;;;;6.22;4.80;;;;;;;14.65;64.90;100099.44;4945914;28;20045;-90
2022/10/11 00:02:55;;;;;;;9.88;5.30;;;;;;;14.55;65.46;100099.44;4947670;28;20026;-90
2022/10/11 00:05:21;;;;;;;8.13;5.15;;;;;;;14.48;65.31;100082.66;4950114;28;20030;-90
2022/10/11 00:07:54;;;;;;;7.07;4.40;;;;;;;14.69;64.47;100088.81;4946169;28;20082;-90
2022/10/11 00:10:19;;;;;;;7.70;4.70;;;;;;;14.71;64.26;100084.78;4948301;28;20495;-91
2022/10/11 00:12:45;;;;;;;8.82;5.30;;;;;;;14.72;64.32;100086.38;4962432;28;20030;-90
2022/10/11 00:15:15;;;;;;;6.30;4.43;;;;;;;14.77;63.98;100076.59;4978138;28;20015;-91
2022/10/11 00:17:41;;;;;;;8.18;5.00;;;;;;;14.86;62.70;100094.72;4962762;28;20030;-90
2022/10/11 00:20:07;;;;;;;5.50;4.07;;;;;;;14.80;61.82;100062.50;4965672;28;20121;-90
2022/10/11 00:22:33;;;;;;;9.20;4.20;;;;;;;14.97;61.12;100100.91;4946579;28;20468;-90
2022/10/11 00:24:59;;;;;;;8.48;4.18;;;;;;;14.88;61.01;100078.97;4949776;28;20042;-91
2022/10/11 00:27:24;;;;;;;5.00;4.00;;;;;;;14.89;60.87;100069.75;4978617;28;20026;-90
2022/10/11 00:29:50;;;;;;;5.30;3.88;;;;;;;14.96;60.74;100085.69;4959228;28;20119;-90
2022/10/11 00:32:15;;;;;;;5.22;4.20;;;;;;;14.98;60.73;100077.28;4962124;28;20396;-91
2022/10/11 00:34:41;;;;;;;5.88;4.45;;;;;;;14.91;60.83;100062.13;4958572;28;20026;-90
2022/10/11 00:37:07;;;;;;;9.60;3.72;;;;;;;14.98;60.80;100067.25;4962522;28;20038;-90
2022/10/11 00:39:32;;;;;;;8.88;4.00;;;;;;;14.92;60.83;100062.94;4935014;28;20038;-91
2022/10/11 00:41:58;;;;;;;7.88;4.07;;;;;;;14.90;60.71;100057.00;4943298;28;20030;-91
2022/10/11 00:44:25;;;;;;;8.55;4.28;;;;;;;14.86;60.39;100048.63;4967168;28;20405;-90
2022/10/11 00:47:06;;;;;;;5.95;3.88;;;;;;;14.99;60.51;100074.31;4954870;28;20034;-90
2022/10/11 00:49:32;;;;;;;4.97;3.70;;;;;;;14.87;60.51;100074.63;4986679;28;20054;-90
2022/10/11 00:51:59;;;;;;;5.43;3.80;;;;;;;14.80;60.87;100043.53;4961278;28;20066;-90
2022/10/11 00:54:26;;;;;;;5.55;3.83;;;;;;;14.93;60.27;100059.16;4951728;28;20030;-92
2022/10/11 00:56:55;;;;;;;4.90;3.90;;;;;;;14.81;60.22;100045.94;4958682;28;20026;-91
2022/10/11 00:59:23;;;;;;;5.70;3.88;;;;;;;14.90;60.26;100052.41;4948262;28;20026;-91
2022/10/11 01:01:48;;;;;;;5.65;4.00;;;;;;;14.85;60.22;100059.75;4954982;28;20054;-90
2022/10/11 01:04:14;;;;;;;6.15;3.75;;;;;;;14.82;59.88;100058.41;4942282;28;20034;-91
2022/10/11 01:06:40;;;;;;;7.03;3.67;;;;;;;14.81;60.03;100050.56;4941077;28;20061;-90
2022/10/11 01:09:05;;;;;;;5.53;3.92;;;;;;;14.88;60.29;100060.00;4974807;28;20059;-90
2022/10/11 01:11:40;;;;;;;7.38;4.50;;;;;;;14.85;60.03;100048.91;4966378;28;20117;-91
2022/10/11 01:14:18;;;;;;;7.85;4.05;;;;;;;14.98;60.11;100072.66;4938591;28;20058;-91
2022/10/11 01:17:03;;;;;;;5.35;3.95;;;;;;;14.98;60.03;100063.72;4957048;28;20034;-90
2022/10/11 01:19:37;;;;;;;12.13;3.95;;;;;;;14.98;59.89;100069.16;4984854;28;20027;-90
2022/10/11 01:22:43;;;;;;;4.50;3.45;;;;;;;14.84;59.33;100031.03;4975790;28;20035;-91
2022/10/11 01:25:11;;;;;;;8.68;3.90;;;;;;;15.06;58.92;100065.84;4962339;28;20035;-91
2022/10/11 01:28:19;;;;;;;6.20;4.03;;;;;;;15.08;59.28;100066.38;4958804;28;20092;-91
2022/10/11 01:30:44;;;;;;;8.70;3.40;;;;;;;14.97;58.67;100046.66;4981492;28;20443;-91
2022/10/11 01:33:40;;;;;;;4.78;3.78;;;;;;;14.95;58.83;100038.00;4961305;28;20060;-91
2022/10/11 01:36:26;;;;;;;4.88;3.35;;;;;;;15.04;59.01;100047.13;4970598;28;20026;-90
2022/10/11 01:39:06;;;;;;;6.22;3.65;;;;;;;14.99;58.94;100033.63;4958901;28;20036;-91
2022/10/11 01:41:45;;;;;;;5.47;3.47;;;;;;;15.08;58.87;100050.13;4951121;28;20049;-91
2022/10/11 01:44:10;;;;;;;6.05;3.35;;;;;;;15.04;58.68;100032.78;4972675;28;20018;-90
2022/10/11 01:46:36;;;;;;;5.40;3.47;;;;;;;14.99;58.73;100019.28;4947055;28;20086;-91
2022/10/11 01:49:01;;;;;;;5.45;4.00;;;;;;;14.86;58.93;100010.66;4947091;28;20037;-91
2022/10/11 01:51:30;;;;;;;4.88;3.50;;;;;;;14.95;59.08;100033.38;4947550;28;20041;-90
2022/10/11 01:54:06;;;;;;;6.18;3.60;;;;;;;14.91;58.89;100020.66;4948497;28;20026;-91
2022/10/11 01:56:50;;;;;;;5.13;3.25;;;;;;;15.12;57.93;100043.84;4976931;28;20499;-91
2022/10/11 01:59:44;;;;;;;7.93;3.40;;;;;;;15.04;57.95;100030.06;4968508;28;20116;-91
2022/10/11 02:02:21;;;;;;;7.13;3.47;;;;;;;15.07;58.12;100032.22;4962711;28;20449;-91
2022/10/11 02:05:16;;;;;;;5.78;3.20;;;;;;;14.98;56.94;100029.28;4964152;28;20561;-91
2022/10/11 02:07:43;;;;;;;5.30;3.13;;;;;;;15.02;57.77;100022.22;4940391;28;20051;-91
2022/10/11 02:10:16;;;;;;;6.30;3.22;;;;;;;15.07;57.97;100038.47;4959591;28;20066;-91
2022/10/11 02:12:54;;;;;;;6.45;3.30;;;;;;;14.99;58.27;100027.41;4959814;28;20038;-91
2022/10/11 02:15:22;;;;;;;6.40;4.05;;;;;;;15.00;57.92;100004.59;4977048;28;20058;-90
2022/10/11 02:17:49;;;;;;;5.20;3.03;;;;;;;15.04;58.12;100020.03;4976624;28;20104;-90
2022/10/11 02:20:20;;;;;;;4.82;3.00;;;;;;;15.06;58.05;100012.41;4976359;28;20034;-90
2022/10/11 02:22:47;;;;;;;10.10;3.35;;;;;;;14.95;58.25;100011.69;4944815;28;20484;-89
2022/10/11 02:25:16;;;;;;;5.50;3.33;;;;;;;14.98;57.90;100010.31;4947977;28;20023;-90
2022/10/11 02:27:41;;;;;;;5.53;3.30;;;;;;;14.92;57.88;100000.56;4960654;28;20022;-89
2022/10/11 02:30:08;;;;;;;5.13;3.08;;;;;;;15.07;57.74;100007.81;4955644;28;20037;-92
2022/10/11 02:32:34;;;;;;;4.63;2.90;;;;;;;14.97;57.68;99991.63;4943917;28;20022;-92
2022/10/11 02:35:00;;;;;;;8.77;3.08;;;;;;;14.94;57.51;99979.41;4968482;28;20019;-92
2022/10/11 02:37:36;;;;;;;8.63;3.03;;;;;;;14.99;57.49;99995.66;4960200;28;20452;-91
2022/10/11 02:40:33;;;;;;;4.22;3.08;;;;;;;15.12;57.33;100014.00;4946185;28;20540;-92
2022/10/11 02:43:12;;;;;;;5.80;3.13;;;;;;;15.05;57.10;100010.00;4915287;28;20038;-91
2022/10/11 02:45:49;;;;;;;5.53;3.08;;;;;;;15.07;56.83;100011.34;4953591;28;20077;-91
2022/10/11 02:48:14;;;;;;;4.88;2.80;;;;;;;14.98;56.71;99999.44;4942310;28;20063;-91
2022/10/11 02:50:40;;;;;;;5.57;2.90;;;;;;;14.97;57.20;99997.03;4962714;28;20030;-91
2022/10/11 02:53:06;;;;;;;9.20;3.50;;;;;;;14.80;56.96;99987.41;4943829;28;20177;-91
2022/10/11 02:55:31;;;;;;;5.95;3.50;;;;;;;14.98;56.86;100012.22;4960362;28;20023;-89
2022/10/11 02:57:57;;;;;;;3.90;2.78;;;;;;;14.92;57.11;100006.00;4963659;28;20041;-91
2022/10/11 03:00:22;;;;;;;7.43;2.90;;;;;;;14.88;56.71;99994.09;4959203;28;20022;-90
2022/10/11 03:02:48;;;;;;;3.60;2.80;;;;;;;14.90;56.80;99994.63;4979044;28;20034;-91
2022/10/11 03:05:13;;;;;;;3.65;3.08;;;;;;;14.77;56.73;99973.59;4979569;28;20026;-91
2022/10/11 03:07:39;;;;;;;5.88;3.00;;;;;;;14.79;56.38;99976.81;4947559;28;20061;-89
2022/10/11 03:10:05;;;;;;;4.35;3.00;;;;;;;14.86;56.21;99983.56;4974186;28;20038;-91
2022/10/11 03:12:30;;;;;;;5.85;2.70;;;;;;;14.86;56.08;99980.03;4979574;28;20485;-91
2022/10/11 03:14:56;;;;;;;4.30;3.15;;;;;;;14.87;56.34;99990.59;4957021;28;20029;-92
2022/10/11 03:17:21;;;;;;;7.32;3.17;;;;;;;14.84;56.39;99988.44;4963779;28;20543;-91
2022/10/11 03:19:47;;;;;;;5.47;2.70;;;;;;;14.79;56.25;99980.34;4963242;28;20037;-91
2022/10/11 03:22:12;;;;;;;3.22;2.42;;;;;;;14.85;56.07;99972.97;4959896;28;20026;-91
2022/10/11 03:24:40;;;;;;;7.85;2.75;;;;;;;14.90;55.97;99998.16;4972182;28;20026;-91
2022/10/11 03:27:06;;;;;;;4.07;2.72;;;;;;;14.71;56.35;99962.78;4980671;28;20034;-92
2022/10/11 03:29:31;;;;;;;4.75;2.78;;;;;;;14.81;56.12;99982.78;4962946;28;20113;-90
2022/10/11 03:31:58;;;;;;;5.28;2.83;;;;;;;14.69;56.86;99978.53;4963746;28;20022;-91
2022/10/11 03:34:23;;;;;;;6.75;3.47;;;;;;;14.45;57.55;99977.53;4979595;28;20480;-91
2022/10/11 03:36:48;;;;;;;8.60;4.25;;;;;;;14.22;60.83;99973.59;4962233;28;20088;-91
2022/10/11 03:39:20;;;;;;;6.55;3.45;;;;;;;14.08;60.33;99967.97;4980255;28;20023;-91
2022/10/11 03:41:46;;;;;;;7.72;3.50;;;;;;;14.22;59.09;99982.53;4962566;28;20026;-91
2022/10/11 03:44:11;;;;;;;4.75;3.45;;;;;;;14.19;58.82;99966.81;4991343;28;20053;-89
2022/10/11 03:46:37;;;;;;;5.88;3.90;;;;;;;14.09;58.55;99966.84;4962639;28;20022;-91
2022/10/11 03:49:02;;;;;;;6.47;3.58;;;;;;;14.19;59.02;99980.34;4944465;28;20034;-91
2022/10/11 03:51:27;;;;;;;5.45;3.90;;;;;;;14.18;58.49;99967.91;4959275;28;20053;-90
2022/10/11 03:53:53;;;;;;;5.85;3.72;;;;;;;14.21;58.67;99969.25;4964074;28;20026;-91
2022/10/11 03:56:18;;;;;;;7.32;3.65;;;;;;;14.17;58.54;99966.28;4962140;28;20459;-91
2022/10/11 03:58:44;;;;;;;5.57;3.28;;;;;;;14.21;58.74;99980.09;4946987;28;20033;-91
2022/10/11 04:01:09;;;;;;;5.43;3.60;;;;;;;14.18;58.73;99956.28;4946393;28;20033;-90
2022/10/11 04:03:35;;;;;;;9.00;4.47;;;;;;;14.01;60.46;99970.13;4961925;28;20018;-90
2022/10/11 04:06:00;;;;;;;6.38;3.63;;;;;;;13.95;60.15;99967.47;4962580;28;20473;-90
2022/10/11 04:08:26;;;;;;;5.70;3.47;;;;;;;13.92;59.01;99964.47;4945549;28;20140;-91
2022/10/11 04:10:51;;;;;;;5.30;3.60;;;;;;;14.05;59.25;99966.63;4946242;28;20038;-92
2022/10/11 04:13:17;;;;;;;6.82;3.50;;;;;;;14.03;58.91;99957.13;4946024;28;20088;-90
2022/10/11 04:15:42;;;;;;;7.93;4.10;;;;;;;14.11;58.42;99967.38;4962530;28;20026;-90
2022/10/11 04:18:08;;;;;;;5.95;3.65;;;;;;;14.14;58.37;99967.66;4948066;28;20041;-91
2022/10/11 04:20:34;;;;;;;4.80;3.35;;;;;;;14.09;58.13;99966.84;4961900;28;20034;-92
2022/10/11 04:22:59;;;;;;;4.78;3.55;;;;;;;14.13;57.58;99967.91;4945757;28;20503;-90
2022/10/11 04:25:25;;;;;;;12.13;5.68;;;;;;;14.10;58.14;99971.19;4947067;28;20022;-90
2022/10/11 04:27:50;;;;;;;6.13;3.92;;;;;;;14.14;57.74;99967.66;4962868;28;20030;-91
2022/10/11 04:30:16;;;;;;;8.27;4.43;;;;;;;14.07;57.40;99960.91;4946240;28;20023;-91
2022/10/11 04:32:41;;;;;;;7.13;3.00;;;;;;;14.07;57.82;99966.31;4977577;28;20045;-91
2022/10/11 04:35:07;;;;;;;14.15;4.10;;;;;;;14.18;56.99;99972.53;4962081;28;20058;-91
2022/10/11 04:37:33;;;;;;;13.65;5.88;;;;;;;14.03;61.02;99970.66;4945524;28;20555;-90
2022/10/11 04:39:58;;;;;;;16.67;6.07;;;;;;;13.86;60.74;99966.41;4943006;28;20058;-91
2022/10/11 04:42:24;;;;;;;16.33;6.32;;;;;;;13.67;62.22;99955.34;4945029;28;20026;-91
2022/10/11 04:44:49;;;;;;;11.30;5.88;;;;;;;13.78;61.25;99969.69;4945595;28;20026;-91
2022/10/11 04:47:15;;;;;;;12.07;7.38;;;;;;;13.71;63.21;99967.25;4944053;28;20054;-92
2022/10/11 04:49:43;;;;;;;15.65;8.20;;;;;;;13.80;64.18;99978.34;4951850;28;20030;-96
2022/10/11 04:52:11;;;;;;;14.82;7.15;;;;;;;13.70;63.18;99964.84;4946004;28;20027;-92
2022/10/11 04:54:37;;;;;;;13.93;7.22;;;;;;;13.59;63.49;99974.84;4943717;28;20046;-92
2022/10/11 04:57:02;;;;;;;22.20;10.77;;;;;;;13.52;63.88;99971.63;4942542;28;20027;-93
2022/10/11 04:59:28;;;;;;;11.88;6.20;;;;;;;13.66;63.54;99983.50;4928330;28;20118;-90
2022/10/11 05:01:53;;;;;;;19.13;7.85;;;;;;;13.75;63.21;99970.22;4975033;28;20018;-91
2022/10/11 05:04:19;;;;;;;15.10;5.93;;;;;;;13.84;62.54;99978.59;4956095;28;20023;-92
2022/10/11 05:06:45;;;;;;;30.65;11.68;;;;;;;13.77;62.75;99959.13;4936743;28;20042;-90
2022/10/11 05:09:11;;;;;;;15.90;9.45;;;;;;;13.88;62.50;99968.81;4935939;28;20519;-91
2022/10/11 05:11:36;;;;;;;16.50;7.40;;;;;;;13.91;62.04;99971.00;4941029;28;20062;-92
2022/10/11 05:14:03;;;;;;;16.65;6.68;;;;;;;14.07;61.78;99972.56;4957803;28;20050;-91
2022/10/11 05:16:28;;;;;;;11.63;6.22;;;;;;;14.23;61.42;99980.63;4945209;28;20030;-90
2022/10/11 05:18:54;;;;;;;12.80;6.10;;;;;;;14.30;60.84;99967.59;4959545;28;20424;-90
2022/10/11 05:21:21;;;;;;;11.27;6.10;;;;;;;14.15;60.97;99963.03;4957434;28;20101;-90
2022/10/11 05:23:47;;;;;;;17.33;10.13;;;;;;;14.12;61.97;99967.13;4930266;28;20026;-91
2022/10/11 05:26:16;;;;;;;13.48;7.13;;;;;;;14.09;61.07;99961.44;4950134;28;20496;-95
2022/10/11 05:28:42;;;;;;;75.85;40.78;;;;;;;14.23;60.74;99977.91;4962618;28;20183;-94
2022/10/11 05:31:31;;;;;;;24.58;12.57;;;;;;;14.28;61.83;99984.13;4961880;28;20026;-93
2022/10/11 05:37:21;;;;;;;13.40;6.95;;;;;;;14.27;62.76;99976.25;4975761;28;20089;-91
2022/10/11 05:39:47;;;;;;;15.13;7.28;;;;;;;14.40;62.10;99985.69;4945464;28;20035;-94
2022/10/11 05:42:12;;;;;;;21.48;8.40;;;;;;;14.31;62.71;99969.22;4927879;28;20532;-93
2022/10/11 05:44:38;;;;;;;17.80;8.02;;;;;;;14.40;62.74;99978.38;4929013;28;20026;-96
2022/10/11 05:47:04;;;;;;;18.60;8.80;;;;;;;14.57;62.66;99997.03;4929287;28;20176;-93
2022/10/11 05:49:32;;;;;;;20.75;8.85;;;;;;;14.41;63.70;99982.69;4934792;28;20121;-93
2022/10/11 05:52:00;;;;;;;17.85;7.57;;;;;;;14.46;63.17;99976.44;4927484;28;20049;-95
2022/10/11 05:54:31;;;;;;;14.50;7.88;;;;;;;14.60;63.02;99987.50;4943358;28;20022;-93
2022/10/11 05:56:56;;;;;;;12.90;8.18;;;;;;;14.63;61.40;99974.22;4965221;28;20037;-95
2022/10/11 05:59:25;;;;;;;21.90;7.50;;;;;;;14.79;62.80;100007.44;4946617;28;20053;-96
2022/10/11 06:01:50;;;;;;;13.80;7.30;;;;;;;14.83;62.80;99991.44;4947402;28;20490;-95
2022/10/11 06:04:17;;;;;;;13.10;6.38;;;;;;;14.94;60.16;99990.25;4948106;28;20023;-96
2022/10/11 06:10:18;;;;;;;9.98;3.90;;;;;;;15.22;55.58;99977.03;4958201;28;20130;-92
2022/10/11 06:12:44;;;;;;;5.90;3.58;;;;;;;15.39;52.42;99996.41;4937497;29;20507;-91
2022/10/11 06:15:10;;;;;;;5.45;3.13;;;;;;;15.45;52.55;99983.63;4942031;28;20027;-92
2022/10/11 06:17:36;;;;;;;3.85;2.92;;;;;;;15.71;51.95;100006.72;4918103;29;20039;-91
2022/10/11 06:20:02;;;;;;;5.15;3.40;;;;;;;15.75;52.84;100004.28;4952527;28;20460;-94
2022/10/11 06:22:48;;;;;;;8.85;3.47;;;;;;;15.74;53.11;99984.44;4927148;29;20563;-95
2022/10/11 06:25:14;;;;;;;8.18;4.65;;;;;;;16.02;52.51;100003.72;4953115;28;20113;-90
2022/10/11 06:27:39;;;;;;;6.15;4.22;;;;;;;15.86;52.76;99989.47;4953783;28;20159;-92
2022/10/11 06:30:06;;;;;;;5.15;3.20;;;;;;;16.11;52.07;100007.41;4918808;29;20494;-91
2022/10/11 06:32:31;;;;;;;8.82;3.90;;;;;;;16.16;51.14;100003.81;4938346;29;20072;-92
2022/10/11 06:34:57;;;;;;;6.28;3.05;;;;;;;16.24;51.50;100002.34;4926221;28;20111;-92
2022/10/11 06:37:22;;;;;;;9.45;4.30;;;;;;;16.10;52.28;99989.50;4945618;28;20030;-93
2022/10/11 06:39:49;;;;;;;6.82;4.10;;;;;;;16.00;52.46;99996.91;4960289;28;20026;-92
2022/10/11 06:42:14;;;;;;;5.18;3.20;;;;;;;16.25;51.86;100003.97;4965075;28;20030;-93
2022/10/11 06:44:40;;;;;;;5.85;3.05;;;;;;;16.18;51.38;99998.88;4965059;28;20504;-92
2022/10/11 06:47:05;;;;;;;5.93;3.60;;;;;;;16.25;52.18;100007.50;4962748;28;20030;-92
2022/10/11 06:49:31;;;;;;;8.05;3.80;;;;;;;16.27;52.49;100005.31;4959619;28;20459;-93
2022/10/11 06:51:57;;;;;;;9.77;3.83;;;;;;;16.32;51.31;99990.84;4956015;28;20022;-94
2022/10/11 06:54:25;;;;;;;8.95;3.78;;;;;;;16.46;51.66;100018.13;4946570;28;20023;-92
2022/10/11 06:56:51;;;;;;;10.52;5.05;;;;;;;16.31;54.13;100008.22;4980639;28;20030;-90
2022/10/11 06:59:18;;;;;;;12.63;6.18;;;;;;;16.46;55.00;100010.78;4947299;28;20488;-92
2022/10/11 07:01:46;;;;;;;11.82;5.78;;;;;;;16.55;55.09;100032.69;4945926;28;20030;-92
2022/10/11 07:04:12;;;;;;;14.30;5.70;;;;;;;16.58;53.74;100021.22;4934710;28;20018;-91
2022/10/11 07:06:38;;;;;;;11.55;5.55;;;;;;;16.43;53.40;99995.03;4950158;28;20097;-92
2022/10/11 07:09:07;;;;;;;34.53;20.50;;;;;;;16.56;52.37;100015.28;4948281;28;20078;-92
2022/10/11 07:11:38;;;;;;;13.60;7.30;;;;;;;16.56;52.15;100012.56;4952585;28;20494;-93
2022/10/11 07:14:15;;;;;;;20.73;10.20;;;;;;;16.77;51.82;100021.25;4954823;28;20026;-92
2022/10/11 07:20:30;;;;;;;10.98;3.25;;;;;;;16.86;50.26;100027.66;4977204;28;20033;-94
2022/10/11 07:22:59;;;;;;;7.78;3.00;;;;;;;16.87;49.46;100012.97;4949837;28;20500;-92
2022/10/11 07:25:24;;;;;;;6.55;3.83;;;;;;;17.04;49.92;100012.44;4919782;28;20481;-93
2022/10/11 07:28:00;;;;;;;13.20;5.32;;;;;;;16.97;49.22;100017.44;4945090;29;20034;-96
2022/10/11 07:30:29;;;;;;;9.82;3.70;;;;;;;17.17;49.46;100019.03;4938407;29;20030;-92
2022/10/11 07:32:57;;;;;;;7.43;2.75;;;;;;;17.35;48.74;100022.84;4919323;29;20047;-92
2022/10/11 07:35:23;;;;;;;5.47;4.00;;;;;;;17.41;48.08;100023.53;4908961;29;20054;-93
2022/10/11 07:37:56;;;;;;;7.97;3.63;;;;;;;17.43;48.03;100014.00;4925624;29;20055;-93
2022/10/11 07:40:22;;;;;;;6.05;3.50;;;;;;;17.35;48.68;100018.19;4911229;28;20037;-91
2022/10/11 07:42:47;;;;;;;5.60;3.33;;;;;;;17.51;48.39;100016.00;4942926;28;20098;-94
2022/10/11 07:45:13;;;;;;;8.63;4.43;;;;;;;17.42;48.97;100019.72;4918058;29;20031;-93
2022/10/11 07:47:45;;;;;;;7.43;3.72;;;;;;;17.78;48.29;100034.34;4955579;28;20093;-92
2022/10/11 07:50:37;;;;;;;6.55;3.33;;;;;;;17.87;48.29;100014.59;4923807;29;20082;-90
2022/10/11 07:53:03;;;;;;;12.65;3.92;;;;;;;17.82;48.33;100020.91;4935033;28;20083;-92
2022/10/11 07:55:30;;;;;;;6.82;3.58;;;;;;;17.99;49.00;100023.06;4935488;28;20608;-93
2022/10/11 07:57:56;;;;;;;7.40;4.45;;;;;;;17.82;49.16;100011.94;4928201;28;20026;-94
2022/10/11 08:00:21;;;;;;;8.80;4.70;;;;;;;17.97;48.99;100017.94;4927368;28;20041;-93
2022/10/11 08:02:47;;;;;;;4.38;3.17;;;;;;;18.13;48.50;100020.34;4922144;28;20030;-95
2022/10/11 08:05:26;;;;;;;6.60;3.58;;;;;;;18.22;48.18;100013.09;4929264;29;20042;-96
2022/10/11 08:08:16;;;;;;;5.55;3.80;;;;;;;18.30;48.54;100000.66;4954151;29;20027;-96
2022/10/11 08:10:44;;;;;;;9.15;3.60;;;;;;;18.56;48.11;100022.75;4936245;29;20043;-94
2022/10/11 08:13:13;;;;;;;7.00;3.70;;;;;;;18.30;48.47;99997.94;4931344;29;20027;-95
2022/10/11 08:15:38;;;;;;;6.88;3.40;;;;;;;18.38;48.31;99998.00;4931816;28;20053;-95
2022/10/11 08:18:09;;;;;;;7.05;3.95;;;;;;;18.64;48.43;100007.59;4931178;28;20062;-96
2022/10/11 08:20:37;;;;;;;8.85;3.83;;;;;;;18.77;48.91;100007.53;4933616;28;20022;-94
2022/10/11 08:23:08;;;;;;;7.43;3.97;;;;;;;19.03;47.54;100026.09;4941777;29;20019;-96
2022/10/11 08:25:44;;;;;;;10.10;6.13;;;;;;;19.05;48.53;100021.13;4909487;29;20035;-94
2022/10/11 08:28:17;;;;;;;11.15;5.95;;;;;;;18.90;48.04;99996.91;4938432;28;20073;-93
2022/10/11 08:30:48;;;;;;;11.63;6.35;;;;;;;19.08;47.37;100015.06;4931041;28;20197;-91
2022/10/11 08:33:18;;;;;;;15.55;8.35;;;;;;;19.05;46.86;100012.94;4940052;29;20035;-93
2022/10/11 08:35:46;;;;;;;9.27;4.55;;;;;;;18.90;47.11;99994.19;4941701;28;20034;-93
2022/10/11 08:38:12;;;;;;;6.50;4.97;;;;;;;18.92;47.43;99997.41;4917884;28;20035;-92
2022/10/11 08:40:43;;;;;;;7.90;4.25;;;;;;;19.20;47.07;100002.78;4952187;29;20512;-95
2022/10/11 08:43:13;;;;;;;6.18;3.78;;;;;;;19.28;47.07;100002.84;4936597;28;20446;-96
2022/10/11 08:45:50;;;;;;;8.63;4.40;;;;;;;19.44;47.47;100002.44;4926226;28;20031;-94
2022/10/11 08:48:25;;;;;;;8.50;4.20;;;;;;;19.50;46.24;100004.72;4931999;29;20085;-91
2022/10/11 08:50:51;;;;;;;7.47;3.95;;;;;;;19.66;46.20;100007.06;4937034;28;20031;-91
2022/10/11 08:53:31;;;;;;;8.05;4.60;;;;;;;19.91;47.42;100025.53;4929356;28;20045;-92
2022/10/11 08:55:56;;;;;;;11.10;4.95;;;;;;;19.89;45.70;100002.38;4925935;29;20031;-93
2022/10/11 08:58:34;;;;;;;6.18;4.00;;;;;;;19.72;45.08;99997.66;4938394;29;20541;-91
2022/10/11 09:01:03;;;;;;;6.63;3.90;;;;;;;19.61;45.70;100002.56;4958620;28;20026;-91
2022/10/11 09:03:46;;;;;;;10.02;4.75;;;;;;;19.67;46.90;99997.75;4933181;28;20019;-92
2022/10/11 09:07:00;;;;;;;6.28;4.35;;;;;;;19.75;45.04;99988.81;4929445;28;20480;-92
2022/10/11 09:09:48;;;;;;;10.10;5.15;;;;;;;19.72;46.47;100023.03;4922789;29;20053;-92
2022/10/11 09:12:32;;;;;;;14.10;6.07;;;;;;;19.79;47.30;100026.13;4920322;29;20035;-91
2022/10/11 09:15:28;;;;;;;14.63;8.27;;;;;;;19.62;47.54;100001.41;4919368;29;20028;-93
2022/10/11 09:18:42;;;;;;;7.80;4.78;;;;;;;19.98;46.68;100014.16;4918792;29;20040;-93
2022/10/11 09:21:33;;;;;;;9.20;4.78;;;;;;;19.64;45.48;99987.47;4926233;29;20031;-92
2022/10/11 09:24:25;;;;;;;9.35;5.15;;;;;;;19.96;44.55;100014.47;4935724;29;20039;-91
2022/10/11 09:27:21;;;;;;;7.40;4.57;;;;;;;19.81;44.68;99984.03;4921907;29;20139;-94
2022/10/11 09:30:15;;;;;;;9.73;5.40;;;;;;;19.95;45.82;99984.72;4916515;29;20122;-93
2022/10/11 09:33:05;;;;;;;11.60;5.30;;;;;;;19.95;44.93;99980.06;4887845;29;20043;-92
2022/10/11 09:35:42;;;;;;;7.90;4.72;;;;;;;20.19;45.14;99998.78;4958910;28;20050;-93
2022/10/11 09:38:35;;;;;;;5.82;4.47;;;;;;;20.36;44.74;99991.75;4931988;28;20481;-94
2022/10/11 09:41:04;;;;;;;9.82;5.50;;;;;;;20.54;44.84;99998.06;4939160;29;20031;-93
2022/10/11 09:43:29;;;;;;;7.47;5.15;;;;;;;20.49;45.40;99970.84;4946531;28;20116;-92
2022/10/11 09:45:55;;;;;;;11.93;5.63;;;;;;;20.72;44.68;99985.22;4923869;28;20034;-94
2022/10/11 09:48:40;;;;;;;8.18;5.38;;;;;;;20.89;43.99;99984.44;4916108;29;20027;-94
2022/10/11 09:51:29;;;;;;;8.00;4.53;;;;;;;20.97;43.13;99981.69;4938684;28;20030;-94
2022/10/11 09:54:04;;;;;;;8.20;3.78;;;;;;;21.13;42.55;99990.22;4925665;28;20034;-94
2022/10/11 09:56:31;;;;;;;7.18;4.25;;;;;;;21.13;42.62;99982.00;4927570;28;20087;-95
2022/10/11 09:59:42;;;;;;;10.43;6.15;;;;;;;21.32;42.69;99987.13;4919297;29;20485;-95
2022/10/11 10:02:16;;;;;;;6.43;4.45;;;;;;;21.39;42.75;99984.69;4925640;29;20035;-94
2022/10/11 10:05:17;;;;;;;10.63;5.40;;;;;;;21.25;42.28;99988.72;4923722;29;20035;-95
2022/10/11 10:08:06;;;;;;;17.35;5.35;;;;;;;21.30;43.23;99977.63;4902572;29;20051;-95
2022/10/11 10:11:00;;;;;;;7.60;5.70;;;;;;;21.51;43.16;99981.28;4923833;29;20103;-96
2022/10/11 10:13:50;;;;;;;5.93;4.30;;;;;;;21.59;42.39;99980.47;4935790;29;20545;-94
2022/10/11 10:16:28;;;;;;;6.30;4.65;;;;;;;21.46;42.85;99950.50;4939358;29;20127;-95
2022/10/11 10:19:05;;;;;;;7.75;4.90;;;;;;;21.43;43.18;99960.19;4916961;29;20038;-96
2022/10/11 10:21:59;;;;;;;6.72;5.07;;;;;;;21.48;42.73;99962.78;4911738;29;20035;-95
2022/10/11 10:24:50;;;;;;;6.63;4.10;;;;;;;21.32;42.80;99965.19;4890955;29;20058;-96
2022/10/11 10:27:24;;;;;;;7.57;4.40;;;;;;;20.94;43.49;99948.69;4950645;29;20051;-92
2022/10/11 10:30:44;;;;;;;8.57;4.88;;;;;;;20.94;43.64;99959.63;4937623;29;20143;-96
2022/10/11 10:33:15;;;;;;;5.70;4.50;;;;;;;20.65;44.45;99936.47;4936476;28;20521;-93
2022/10/11 10:35:46;;;;;;;7.60;4.53;;;;;;;20.66;44.29;99946.25;4939097;28;20058;-93
2022/10/11 10:39:08;;;;;;;6.60;4.60;;;;;;;20.78;44.39;99954.63;4941228;28;20022;-93
2022/10/11 10:41:34;;;;;;;5.43;4.30;;;;;;;20.70;44.61;99927.28;4964375;28;20027;-94
2022/10/11 10:44:44;;;;;;;8.98;5.30;;;;;;;20.57;45.08;99918.09;4929894;29;20042;-95
2022/10/11 10:48:10;;;;;;;8.30;4.97;;;;;;;20.55;45.13;99909.38;4950076;29;20047;-96
2022/10/11 10:51:20;;;;;;;6.03;4.10;;;;;;;20.35;45.50;99927.22;4888903;29;20044;-95
2022/10/11 10:55:05;;;;;;;6.97;4.57;;;;;;;20.37;45.85;99903.09;4916270;29;20047;-94
2022/10/11 10:57:50;;;;;;;;;;;;;;;;;;;;;
2022/10/11 11:00:45;;;;;;;8.45;4.97;;;;;;;20.34;46.83;99909.22;4956417;29;20045;-93
2022/10/11 11:03:43;;;;;;;8.18;5.30;;;;;;;20.51;45.78;99894.75;4931758;28;20067;-92
2022/10/11 11:06:17;;;;;;;6.65;4.63;;;;;;;20.20;46.03;99898.44;4961019;28;20211;-91
2022/10/11 11:09:13;;;;;;;9.63;4.75;;;;;;;20.51;46.18;99933.03;4968504;28;20050;-94
2022/10/11 11:11:50;;;;;;;12.10;4.68;;;;;;;20.57;45.92;99921.63;4969141;28;20026;-92
2022/10/11 11:18:19;;;;;;;6.90;4.53;;;;;;;20.50;45.85;99928.69;4971171;28;20053;-92
2022/10/11 11:20:53;;;;;;;10.20;4.80;;;;;;;20.54;45.82;99927.75;4976270;28;20090;-95
2022/10/11 11:23:37;;;;;;;7.47;4.95;;;;;;;20.36;45.81;99910.50;4974070;28;20110;-94
2022/10/11 11:26:27;;;;;;;8.15;5.20;;;;;;;20.38;45.97;99926.59;4972082;28;20034;-94
2022/10/11 11:29:04;;;;;;;8.07;4.93;;;;;;;20.37;46.22;99925.78;4973016;28;20038;-93
2022/10/11 11:31:42;;;;;;;7.18;4.47;;;;;;;20.46;46.02;99930.44;4973696;28;20050;-96
2022/10/11 11:34:32;;;;;;;9.15;4.65;;;;;;;20.22;45.91;99912.59;4966744;28;20039;-95
2022/10/11 11:37:08;;;;;;;6.65;4.75;;;;;;;20.17;45.98;99915.44;4964222;28;20065;-94
2022/10/11 11:39:48;;;;;;;;;;;;;;;;;;;;;
2022/10/11 11:42:21;;;;;;;6.68;4.68;;;;;;;20.38;45.72;99938.34;4939510;28;20114;-95
2022/10/11 11:45:16;;;;;;;7.20;4.50;;;;;;;20.29;45.69;99921.09;4955225;28;20046;-96
2022/10/11 11:47:58;;;;;;;8.70;4.38;;;;;;;20.22;45.57;99917.25;4943930;29;20043;-95
2022/10/11 11:50:30;;;;;;;28.35;15.70;;;;;;;20.22;46.04;99911.78;4921087;28;20110;-96
2022/10/11 11:53:29;;;;;;;8.30;5.10;;;;;;;20.24;45.87;99915.00;4915668;29;20027;-95
2022/10/11 11:56:08;;;;;;;7.47;4.70;;;;;;;20.22;46.44;99928.19;4934298;29;20425;-96
2022/10/11 11:59:03;;;;;;;;;;;;;;;;;;;;;
2022/10/11 12:02:09;;;;;;;9.68;4.60;;;;;;;20.17;46.15;99902.59;4966614;28;20113;-95
2022/10/11 12:04:36;;;;;;;6.75;4.45;;;;;;;20.31;45.86;99910.66;4891935;29;20035;-94
2022/10/11 12:07:10;;;;;;;12.10;5.05;;;;;;;20.33;46.17;99916.59;4928876;28;20474;-93
2022/10/11 12:09:37;;;;;;;5.75;4.43;;;;;;;20.20;45.86;99898.44;4941556;28;20043;-94
2022/10/11 12:12:06;;;;;;;8.32;4.55;;;;;;;20.32;46.00;99906.81;4948957;28;20489;-93
2022/10/11 12:14:32;;;;;;;8.38;4.93;;;;;;;20.41;46.12;99920.47;4932168;28;20031;-94